Alfa Twilight — 9HTM9 — position and weather

sailwx.info

Track history (hours):
 
Tides and Currents Weather Stations Pressure Air Temp Water Temp Dewpoint Dewpoint Depression Visibility Wind Speed Wind Dir Waves Ship Positions

Alfa Twilight

Last reported at 2018-Apr-18 22:25 UTC. Time now 2018-Apr-20 14:44 UTC.
Position N 36°47' E 014°05'.

Length 99 m; draft 6.9 m.

Type: Cargo ship. MMSI: 249530000.

Date/timePositionNaut miles runAvg speedWind from/ knotsBaromVisibWave heightAir tempDewpointWater temp
2018-Apr-18 22:25N 36°47' E 014°05'511.2
2018-Apr-18 21:59N 36°45' E 014°11'611.0
2018-Apr-18 21:28N 36°43' E 014°17'510.7
2018-Apr-18 21:00N 36°42' E 014°23'  
2018-Apr-11 16:24N 39°56' E 025°56'410.9
2018-Apr-11 16:00N 39°53' E 025°53'612.3
2018-Apr-11 15:30N 39°47' E 025°48'17212.3
2018-Apr-11 01:27N 37°18' E 023°58'511.9
2018-Apr-11 01:00N 37°13' E 023°55'611.8
2018-Apr-11 00:30N 37°08' E 023°51'912.0
2018-Apr-10 23:45N 37°01' E 023°45'312.1
2018-Apr-10 23:29N 36°58' E 023°42'712.1
2018-Apr-10 22:56N 36°52' E 023°38'511.9
2018-Apr-10 22:30N 36°48' E 023°35'  
Track history (hours):
 
Tides and Currents Weather Stations Pressure Air Temp Water Temp Dewpoint Dewpoint Depression Visibility Wind Speed Wind Dir Waves Ship Positions

Alfa Twilight

Last reported at 2018-Apr-18 22:25 UTC. Time now 2018-Apr-20 14:44 UTC.
Position N 36°47' E 014°05'.

Length 99 m; draft 6.9 m.

Type: Cargo ship. MMSI: 249530000.

Date/timePositionNaut miles runAvg speedWind from/ knotsBaromVisibWave heightAir tempDewpointWater temp
2018-Apr-18 22:25N 36°47' E 014°05'511.2
2018-Apr-18 21:59N 36°45' E 014°11'611.0
2018-Apr-18 21:28N 36°43' E 014°17'510.7
2018-Apr-18 21:00N 36°42' E 014°23'  
2018-Apr-11 16:24N 39°56' E 025°56'410.9
2018-Apr-11 16:00N 39°53' E 025°53'612.3
2018-Apr-11 15:30N 39°47' E 025°48'17212.3
2018-Apr-11 01:27N 37°18' E 023°58'511.9
2018-Apr-11 01:00N 37°13' E 023°55'611.8
2018-Apr-11 00:30N 37°08' E 023°51'912.0
2018-Apr-10 23:45N 37°01' E 023°45'312.1
2018-Apr-10 23:29N 36°58' E 023°42'712.1
2018-Apr-10 22:56N 36°52' E 023°38'511.9
2018-Apr-10 22:30N 36°48' E 023°35'  

Dump ship's entire track history